createdAt,value
2017-01-05T00:01:07.372Z,18.27
2017-01-05T00:02:18.092Z,18.23
2017-01-05T00:03:28.805Z,18.21
2017-01-05T00:04:39.572Z,18.19
2017-01-05T00:05:49.499Z,18.13
2017-01-05T00:07:00.208Z,18.27
2017-01-05T00:08:10.922Z,18.27
2017-01-05T00:09:21.647Z,18.24
2017-01-05T00:10:32.366Z,18.23
2017-01-05T00:11:42.677Z,18.26
2017-01-05T00:12:53.390Z,18.27
2017-01-05T00:14:03.706Z,18.26
2017-01-05T00:15:14.036Z,18.23
2017-01-05T00:16:24.765Z,18.26
2017-01-05T00:17:35.105Z,18.24
2017-01-05T00:18:45.435Z,18.12
2017-01-05T00:19:55.757Z,18.26
2017-01-05T00:21:05.677Z,18.24
2017-01-05T00:22:16.004Z,18.26
2017-01-05T00:23:25.927Z,18.23
2017-01-05T00:24:36.250Z,18.12
2017-01-05T00:25:46.583Z,18.13
2017-01-05T00:26:56.900Z,18.21
2017-01-05T00:28:07.268Z,18.13
2017-01-05T00:29:17.597Z,18.13
2017-01-05T00:30:28.320Z,18.09
2017-01-05T00:31:38.253Z,18.11
2017-01-05T00:32:48.179Z,18.24
2017-01-05T00:33:58.121Z,18.13
2017-01-05T00:35:08.438Z,18.23
2017-01-05T00:36:18.358Z,18.15
2017-01-05T00:37:28.669Z,18.11
2017-01-05T00:38:39.389Z,18.13
2017-01-05T00:39:48.909Z,18.16
2017-01-05T00:40:59.626Z,18.11
2017-01-05T00:42:10.344Z,18.15
2017-01-05T00:43:20.665Z,18.18
2017-01-05T00:44:30.195Z,18.13
2017-01-05T00:45:39.731Z,18.16
2017-01-05T00:46:50.058Z,18.15
2017-01-05T00:48:00.384Z,18.08
2017-01-05T00:49:11.100Z,18.05
2017-01-05T00:50:20.623Z,18.06
2017-01-05T00:51:31.336Z,18.15
2017-01-05T00:52:42.063Z,18.09
2017-01-05T00:53:52.783Z,18.18
2017-01-05T00:55:03.101Z,18.12
2017-01-05T00:56:13.045Z,18.18
2017-01-05T00:57:23.364Z,18.12
2017-01-05T00:58:33.683Z,18.12
2017-01-05T00:59:43.237Z,18.08
2017-01-05T01:00:53.162Z,18.13
2017-01-05T01:02:03.106Z,18.13
2017-01-05T01:03:13.838Z,18.15
2017-01-05T01:04:24.543Z,18.16
2017-01-05T01:05:35.247Z,18.11
2017-01-05T01:06:45.967Z,18.11
2017-01-05T01:07:56.674Z,18.05
2017-01-05T01:09:06.999Z,18.15
2017-01-05T01:10:17.333Z,18.09
2017-01-05T01:11:28.050Z,18.09
2017-01-05T01:12:38.805Z,18.11
2017-01-05T01:13:48.753Z,18.09
2017-01-05T01:14:59.464Z,18.06
2017-01-05T01:16:09.390Z,18.13
2017-01-05T01:17:19.707Z,18.16
2017-01-05T01:18:30.439Z,18.13
2017-01-05T01:19:40.366Z,18.12
2017-01-05T01:20:50.692Z,18.13
2017-01-05T01:22:00.621Z,18.12
2017-01-05T01:23:11.332Z,18.11
2017-01-05T01:24:21.258Z,18.11
2017-01-05T01:25:31.590Z,18.06
2017-01-05T01:26:41.545Z,18.16
2017-01-05T01:27:52.250Z,18.06
2017-01-05T01:29:02.567Z,18.15
2017-01-05T01:30:12.893Z,18.09
2017-01-05T01:31:23.629Z,18.06
2017-01-05T01:32:33.943Z,18.05
2017-01-05T01:33:43.859Z,18.13
2017-01-05T01:34:53.785Z,18.16
2017-01-05T01:36:03.702Z,18.05
2017-01-05T01:37:13.642Z,18.13
2017-01-05T01:38:23.565Z,18.05
2017-01-05T01:39:33.481Z,18.08
2017-01-05T01:40:43.407Z,18.12
2017-01-05T01:41:53.747Z,18.08
2017-01-05T01:43:03.670Z,18.11
2017-01-05T01:44:14.377Z,18.05
2017-01-05T01:45:25.085Z,18.09
2017-01-05T01:46:35.798Z,18.03
2017-01-05T01:47:46.518Z,18.11
2017-01-05T01:48:57.347Z,17.98
2017-01-05T01:50:07.654Z,18.08
2017-01-05T01:51:18.365Z,18.06
2017-01-05T01:52:29.077Z,18.02
2017-01-05T01:53:39.398Z,17.94
2017-01-05T01:54:49.330Z,18.03
2017-01-05T01:56:00.044Z,18.11
2017-01-05T01:57:10.376Z,18.05
2017-01-05T01:58:20.294Z,17.98
2017-01-05T01:59:30.617Z,18.06
2017-01-05T02:00:41.327Z,18.05
2017-01-05T02:01:52.037Z,18
2017-01-05T02:03:01.961Z,18.03
2017-01-05T02:04:12.675Z,17.94
2017-01-05T02:05:23.001Z,17.98
2017-01-05T02:06:33.327Z,17.98
2017-01-05T02:07:43.245Z,17.97
2017-01-05T02:08:53.574Z,17.98
2017-01-05T02:10:03.897Z,18.02
2017-01-05T02:11:13.424Z,18
2017-01-05T02:12:23.746Z,18.03
2017-01-05T02:13:33.673Z,18.02
2017-01-05T02:14:43.993Z,18.03
2017-01-05T02:15:54.707Z,18.03
2017-01-05T02:17:04.233Z,17.95
2017-01-05T02:18:13.776Z,18
2017-01-05T02:19:24.092Z,18.03
2017-01-05T02:20:34.012Z,17.97
2017-01-05T02:21:43.974Z,18
2017-01-05T02:22:53.498Z,17.95
2017-01-05T02:24:03.807Z,17.98
2017-01-05T02:25:13.734Z,18.02
2017-01-05T02:26:24.454Z,17.98
2017-01-05T02:27:34.774Z,18.02
2017-01-05T02:28:44.697Z,17.98
2017-01-05T02:29:55.009Z,18
2017-01-05T02:31:05.728Z,17.95
2017-01-05T02:32:16.432Z,18
2017-01-05T02:33:26.751Z,18.08
2017-01-05T02:34:36.688Z,18
2017-01-05T02:35:47.007Z,17.98
2017-01-05T02:36:56.928Z,18.06
2017-01-05T02:38:07.651Z,17.98
2017-01-05T02:39:17.961Z,17.95
2017-01-05T02:40:27.887Z,17.95
2017-01-05T02:41:38.592Z,17.98
2017-01-05T02:42:48.921Z,18
2017-01-05T02:43:59.232Z,18.03
2017-01-05T02:45:08.775Z,17.97
2017-01-05T02:46:18.700Z,18.02
2017-01-05T02:47:29.414Z,17.97
2017-01-05T02:48:40.162Z,18.03
2017-01-05T02:49:50.484Z,17.95
2017-01-05T02:51:00.806Z,17.95
2017-01-05T02:52:11.536Z,17.98
2017-01-05T02:53:22.249Z,17.97
2017-01-05T02:54:32.595Z,17.94
2017-01-05T02:55:42.534Z,18
2017-01-05T02:56:52.484Z,18.03
2017-01-05T02:58:02.419Z,18.03
2017-01-05T02:59:11.945Z,17.93
2017-01-05T03:00:22.650Z,17.98
2017-01-05T03:01:33.376Z,18.03
2017-01-05T03:02:43.299Z,17.95
2017-01-05T03:03:53.213Z,18
2017-01-05T03:05:03.529Z,17.97
2017-01-05T03:06:13.859Z,17.93
2017-01-05T03:07:23.775Z,17.95
2017-01-05T03:08:33.696Z,17.93
2017-01-05T03:09:43.624Z,17.95
2017-01-05T03:10:53.962Z,17.95
2017-01-05T03:12:04.279Z,17.94
2017-01-05T03:13:14.992Z,17.9
2017-01-05T03:14:24.985Z,17.97
2017-01-05T03:15:35.309Z,17.93
2017-01-05T03:16:46.010Z,17.93
2017-01-05T03:17:56.738Z,17.88
2017-01-05T03:19:07.053Z,17.93
2017-01-05T03:20:17.762Z,17.91
2017-01-05T03:21:28.474Z,17.93
2017-01-05T03:22:39.182Z,17.91
2017-01-05T03:23:49.897Z,17.94
2017-01-05T03:25:00.621Z,17.93
2017-01-05T03:26:10.548Z,17.88
2017-01-05T03:27:21.264Z,17.94
2017-01-05T03:28:31.588Z,17.87
2017-01-05T03:29:41.917Z,17.93
2017-01-05T03:30:51.441Z,17.91
2017-01-05T03:32:01.767Z,17.9
2017-01-05T03:33:12.484Z,17.87
2017-01-05T03:34:22.809Z,17.94
2017-01-05T03:35:33.530Z,17.91
2017-01-05T03:36:43.845Z,17.91
2017-01-05T03:37:53.373Z,17.91
2017-01-05T03:39:03.693Z,17.93
2017-01-05T03:40:13.222Z,17.88
2017-01-05T03:41:22.750Z,17.91
2017-01-05T03:42:32.666Z,17.91
2017-01-05T03:43:42.596Z,17.82
2017-01-05T03:44:52.510Z,17.91
2017-01-05T03:46:02.045Z,17.95
2017-01-05T03:47:11.969Z,17.84
2017-01-05T03:48:21.893Z,17.94
2017-01-05T03:49:31.031Z,17.91
2017-01-05T03:50:41.748Z,17.91
2017-01-05T03:51:52.077Z,17.9
2017-01-05T03:53:02.401Z,17.93
2017-01-05T03:54:12.715Z,17.91
2017-01-05T03:55:23.438Z,17.86
2017-01-05T03:56:34.183Z,17.88
2017-01-05T03:57:44.091Z,17.88
2017-01-05T03:58:54.020Z,17.9
2017-01-05T04:00:03.930Z,17.86
2017-01-05T04:01:14.299Z,17.88
2017-01-05T04:02:24.237Z,17.82
2017-01-05T04:03:34.539Z,17.9
2017-01-05T04:04:44.858Z,17.88
2017-01-05T04:05:55.185Z,17.86
2017-01-05T04:07:05.508Z,17.84
2017-01-05T04:08:16.231Z,17.86
2017-01-05T04:09:26.158Z,17.84
2017-01-05T04:10:36.866Z,17.8
2017-01-05T04:11:46.782Z,17.9
2017-01-05T04:12:57.105Z,17.86
2017-01-05T04:14:07.406Z,17.87
2017-01-05T04:15:18.120Z,17.82
2017-01-05T04:16:28.430Z,17.84
2017-01-05T04:17:39.153Z,17.82
2017-01-05T04:18:49.476Z,17.87
2017-01-05T04:19:59.393Z,17.84
2017-01-05T04:21:10.101Z,17.84
2017-01-05T04:22:20.417Z,17.84
2017-01-05T04:23:30.344Z,17.82
2017-01-05T04:24:39.868Z,17.8
2017-01-05T04:25:50.210Z,17.84
2017-01-05T04:27:00.130Z,17.8
2017-01-05T04:28:10.449Z,17.84
2017-01-05T04:29:20.779Z,17.84
2017-01-05T04:30:31.483Z,17.9
2017-01-05T04:31:41.421Z,17.87
2017-01-05T04:32:52.130Z,17.87
2017-01-05T04:34:02.856Z,17.79
2017-01-05T04:35:13.173Z,17.87
2017-01-05T04:36:23.493Z,17.82
2017-01-05T04:37:33.807Z,17.79
2017-01-05T04:38:43.752Z,17.86
2017-01-05T04:39:53.663Z,17.8
2017-01-05T04:41:03.988Z,17.8
2017-01-05T04:42:14.721Z,17.78
2017-01-05T04:43:25.042Z,17.82
2017-01-05T04:44:34.571Z,17.78
2017-01-05T04:45:44.891Z,17.78
2017-01-05T04:46:55.222Z,17.9
2017-01-05T04:48:05.546Z,17.75
2017-01-05T04:49:15.864Z,17.8
2017-01-05T04:50:26.183Z,17.8
2017-01-05T04:51:36.503Z,17.75
2017-01-05T04:52:47.227Z,17.79
2017-01-05T04:53:57.936Z,17.8
2017-01-05T04:55:08.255Z,17.8
2017-01-05T04:56:18.976Z,17.78
2017-01-05T04:57:28.904Z,17.76
2017-01-05T04:58:39.214Z,17.75
2017-01-05T04:59:49.535Z,17.79
2017-01-05T05:01:00.293Z,17.76
2017-01-05T05:02:10.611Z,17.76
2017-01-05T05:03:21.332Z,17.8
2017-01-05T05:04:31.259Z,17.82
2017-01-05T05:05:40.791Z,17.86
2017-01-05T05:06:50.715Z,17.88
2017-01-05T05:08:00.740Z,17.84
2017-01-05T05:09:11.448Z,17.8
2017-01-05T05:10:21.768Z,17.76
2017-01-05T05:11:32.491Z,17.82
2017-01-05T05:12:42.417Z,17.75
2017-01-05T05:13:53.128Z,17.75
2017-01-05T05:15:03.445Z,17.84
2017-01-05T05:16:13.363Z,17.75
2017-01-05T05:17:23.649Z,17.8
2017-01-05T05:18:34.066Z,17.8
2017-01-05T05:19:43.624Z,17.79
2017-01-05T05:20:54.340Z,17.82
2017-01-05T05:22:04.692Z,17.8
2017-01-05T05:23:14.616Z,17.8
2017-01-05T05:24:25.342Z,17.76
2017-01-05T05:25:35.664Z,17.87
2017-01-05T05:26:46.379Z,17.84
2017-01-05T05:27:57.095Z,17.73
2017-01-05T05:29:07.820Z,17.75
2017-01-05T05:30:18.526Z,17.86
2017-01-05T05:31:28.558Z,17.71
2017-01-05T05:32:38.887Z,17.8
2017-01-05T05:33:49.214Z,17.75
2017-01-05T05:34:59.541Z,17.75
2017-01-05T05:36:09.088Z,17.69
2017-01-05T05:37:19.796Z,17.69
2017-01-05T05:38:30.125Z,17.71
2017-01-05T05:39:40.849Z,17.71
2017-01-05T05:40:50.766Z,17.73
2017-01-05T05:42:00.683Z,17.69
2017-01-05T05:43:11.002Z,17.79
2017-01-05T05:44:20.936Z,17.73
2017-01-05T05:45:30.926Z,17.73
2017-01-05T05:46:41.261Z,17.78
2017-01-05T05:47:51.172Z,17.72
2017-01-05T05:49:01.880Z,17.82
2017-01-05T05:50:11.803Z,17.71
2017-01-05T05:51:21.732Z,17.71
2017-01-05T05:52:32.454Z,17.82
2017-01-05T05:53:42.779Z,17.76
2017-01-05T05:54:53.102Z,17.75
2017-01-05T05:56:03.815Z,17.76
2017-01-05T05:57:14.536Z,17.71
2017-01-05T05:58:24.456Z,17.75
2017-01-05T05:59:34.619Z,17.72
2017-01-05T06:00:44.945Z,17.73
2017-01-05T06:01:55.243Z,17.75
2017-01-05T06:03:05.965Z,17.78
2017-01-05T06:04:16.293Z,17.8
2017-01-05T06:05:27.022Z,17.86
2017-01-05T06:06:37.341Z,17.78
2017-01-05T06:07:47.272Z,17.76
2017-01-05T06:08:57.201Z,17.76
2017-01-05T06:10:07.521Z,17.76
2017-01-05T06:11:17.463Z,17.76
2017-01-05T06:12:27.396Z,17.76
2017-01-05T06:13:38.108Z,17.75
2017-01-05T06:14:48.028Z,17.79
2017-01-05T06:15:58.345Z,17.72
2017-01-05T06:17:08.300Z,17.73
2017-01-05T06:18:19.039Z,17.79
2017-01-05T06:19:29.356Z,17.79
2017-01-05T06:20:39.679Z,17.72
2017-01-05T06:21:49.999Z,17.76
2017-01-05T06:23:00.760Z,17.63
2017-01-05T06:24:11.067Z,17.75
2017-01-05T06:25:21.397Z,17.76
2017-01-05T06:26:30.948Z,17.71
2017-01-05T06:27:41.294Z,17.8
2017-01-05T06:28:52.019Z,17.78
2017-01-05T06:30:02.728Z,17.73
2017-01-05T06:31:11.857Z,17.73
2017-01-05T06:32:22.574Z,17.73
2017-01-05T06:33:33.293Z,17.78
2017-01-05T06:34:44.055Z,17.78
2017-01-05T06:35:54.372Z,17.73
2017-01-05T06:37:05.097Z,17.76
2017-01-05T06:38:15.413Z,17.75
2017-01-05T06:39:25.741Z,17.75
2017-01-05T06:40:36.079Z,17.75
2017-01-05T06:41:46.797Z,17.76
2017-01-05T06:42:57.505Z,17.68
2017-01-05T06:44:07.821Z,17.71
2017-01-05T06:45:18.131Z,17.8
2017-01-05T06:46:28.045Z,17.69
2017-01-05T06:47:37.573Z,17.76
2017-01-05T06:48:47.913Z,17.72
2017-01-05T06:49:57.830Z,17.73
2017-01-05T06:51:08.147Z,17.76
2017-01-05T06:52:18.084Z,17.73
2017-01-05T06:53:28.797Z,17.75
2017-01-05T06:54:38.719Z,17.76
2017-01-05T06:55:49.446Z,17.73
2017-01-05T06:56:59.379Z,17.76
2017-01-05T06:58:09.391Z,17.76
2017-01-05T06:59:19.314Z,17.69
2017-01-05T07:00:30.028Z,17.72
2017-01-05T07:01:40.754Z,17.72
2017-01-05T07:02:51.083Z,17.8
2017-01-05T07:04:01.448Z,17.68
2017-01-05T07:05:11.800Z,17.79
2017-01-05T07:06:22.153Z,17.82
2017-01-05T07:07:32.478Z,17.73
2017-01-05T07:08:42.850Z,17.73
2017-01-05T07:09:53.587Z,17.86
2017-01-05T07:11:03.524Z,17.75
2017-01-05T07:12:14.316Z,17.8
2017-01-05T07:13:24.712Z,17.88
2017-01-05T07:14:35.446Z,17.75
2017-01-05T07:15:45.795Z,17.82
2017-01-05T07:16:55.337Z,17.84
2017-01-05T07:18:05.286Z,17.87
2017-01-05T07:19:15.634Z,17.84
2017-01-05T07:20:26.364Z,17.84
2017-01-05T07:21:37.125Z,17.84
2017-01-05T07:22:47.868Z,17.84
2017-01-05T07:23:57.405Z,17.79
2017-01-05T07:25:06.987Z,17.87
2017-01-05T07:26:16.915Z,17.8
2017-01-05T07:27:27.235Z,17.82
2017-01-05T07:28:37.977Z,17.8
2017-01-05T07:29:48.745Z,17.86
2017-01-05T07:30:58.711Z,17.87
2017-01-05T07:32:07.872Z,17.86
2017-01-05T07:33:18.204Z,17.8
2017-01-05T07:34:28.976Z,17.76
2017-01-05T07:35:38.925Z,17.76
2017-01-05T07:36:49.264Z,17.76
2017-01-05T07:37:59.587Z,17.78
2017-01-05T07:39:09.935Z,17.75
2017-01-05T07:40:20.278Z,17.84
2017-01-05T07:41:30.610Z,17.86
2017-01-05T07:42:41.350Z,17.73
2017-01-05T07:43:51.677Z,17.86
2017-01-05T07:45:02.405Z,17.78
2017-01-05T07:46:12.742Z,17.76
2017-01-05T07:47:23.495Z,17.76
2017-01-05T07:48:34.327Z,17.75
2017-01-05T07:49:44.285Z,17.78
2017-01-05T07:50:54.637Z,17.86
2017-01-05T07:52:04.595Z,17.8
2017-01-05T07:53:15.395Z,17.86
2017-01-05T07:54:25.751Z,17.84
2017-01-05T07:55:35.307Z,17.86
2017-01-05T07:56:45.658Z,17.84
2017-01-05T07:57:56.657Z,17.9
2017-01-05T07:59:06.990Z,17.9
2017-01-05T08:00:17.719Z,17.9
2017-01-05T08:01:27.278Z,17.9
2017-01-05T08:02:37.621Z,17.86
2017-01-05T08:03:47.982Z,17.94
2017-01-05T08:04:57.959Z,17.91
2017-01-05T08:06:08.701Z,17.84
2017-01-05T08:07:19.042Z,17.93
2017-01-05T08:08:29.413Z,17.91
2017-01-05T08:09:40.181Z,17.84
2017-01-05T08:10:50.544Z,17.91
2017-01-05T08:12:00.935Z,17.88
2017-01-05T08:13:11.284Z,17.88
2017-01-05T08:14:20.821Z,17.88
2017-01-05T08:15:30.773Z,17.9
2017-01-05T08:16:41.557Z,17.91
2017-01-05T08:17:51.502Z,17.9
2017-01-05T08:19:02.262Z,17.84
2017-01-05T08:20:12.600Z,17.88
2017-01-05T08:21:22.942Z,17.8
2017-01-05T08:22:33.705Z,17.8
2017-01-05T08:23:44.418Z,17.84
2017-01-05T08:24:53.951Z,17.91
2017-01-05T08:26:04.661Z,17.88
2017-01-05T08:27:14.979Z,17.8
2017-01-05T08:28:25.743Z,17.84
2017-01-05T08:29:36.498Z,17.88
2017-01-05T08:30:46.418Z,17.87
2017-01-05T08:31:56.748Z,17.9
2017-01-05T08:33:07.477Z,17.9
2017-01-05T08:34:18.217Z,17.9
2017-01-05T08:35:28.143Z,17.87
2017-01-05T08:36:38.466Z,17.93
2017-01-05T08:37:49.162Z,17.9
2017-01-05T08:38:59.886Z,17.95
2017-01-05T08:40:10.214Z,17.93
2017-01-05T08:41:20.953Z,17.95
2017-01-05T08:42:30.872Z,17.98
2017-01-05T08:43:40.776Z,17.93
2017-01-05T08:44:51.502Z,17.97
2017-01-05T08:46:02.226Z,17.98
2017-01-05T08:47:12.971Z,18
2017-01-05T08:48:23.695Z,17.95
2017-01-05T08:49:34.011Z,17.97
2017-01-05T08:50:43.924Z,18.05
2017-01-05T08:51:54.669Z,18.02
2017-01-05T08:53:04.207Z,18.02
2017-01-05T08:54:14.947Z,18.06
2017-01-05T08:55:24.899Z,18
2017-01-05T08:56:35.203Z,18.03
2017-01-05T08:57:45.927Z,18.05
2017-01-05T08:58:56.687Z,17.95
2017-01-05T09:00:07.023Z,18.02
2017-01-05T09:01:16.964Z,18
2017-01-05T09:02:26.498Z,17.98
2017-01-05T09:03:37.222Z,18.02
2017-01-05T09:04:47.968Z,17.97
2017-01-05T09:05:57.518Z,17.97
2017-01-05T09:07:08.259Z,18.02
2017-01-05T09:08:18.594Z,18
2017-01-05T09:09:28.557Z,18.02
2017-01-05T09:10:38.533Z,18.09
2017-01-05T09:11:48.457Z,18.08
2017-01-05T09:12:58.815Z,18.05
2017-01-05T09:14:08.754Z,18.11
2017-01-05T09:15:19.485Z,18.05
2017-01-05T09:16:29.828Z,18.16
2017-01-05T09:17:40.170Z,18.11
2017-01-05T09:18:50.919Z,18.13
2017-01-05T09:20:00.877Z,18.09
2017-01-05T09:21:11.276Z,18.23
2017-01-05T09:22:21.226Z,18.24
2017-01-05T09:23:31.822Z,18.19
2017-01-05T09:24:41.993Z,18.23
2017-01-05T09:25:52.608Z,18.34
2017-01-05T09:27:03.357Z,18.37
2017-01-05T09:28:14.093Z,18.28
2017-01-05T09:29:24.435Z,18.34
2017-01-05T09:30:34.378Z,18.41
2017-01-05T09:31:44.701Z,18.45
2017-01-05T09:32:55.418Z,18.48
2017-01-05T09:34:06.148Z,18.37
2017-01-05T09:35:17.460Z,18.34
2017-01-05T09:36:27.643Z,18.41
2017-01-05T09:37:37.981Z,18.36
2017-01-05T09:38:47.936Z,18.34
2017-01-05T09:39:58.269Z,18.39
2017-01-05T09:41:08.236Z,18.37
2017-01-05T09:42:18.572Z,18.46
2017-01-05T09:43:29.315Z,18.34
2017-01-05T09:44:39.249Z,18.39
2017-01-05T09:45:49.991Z,18.36
2017-01-05T09:47:00.336Z,18.49
2017-01-05T09:48:10.693Z,18.36
2017-01-05T09:49:21.028Z,18.39
2017-01-05T09:50:30.993Z,18.39
2017-01-05T09:51:40.548Z,18.39
2017-01-05T09:52:51.358Z,18.46
2017-01-05T09:54:01.690Z,18.55
2017-01-05T09:55:12.032Z,18.57
2017-01-05T09:56:22.753Z,18.6
2017-01-05T09:57:33.515Z,18.61
2017-01-05T09:58:44.249Z,18.58
2017-01-05T09:59:54.993Z,18.45
2017-01-05T10:01:05.712Z,18.49
2017-01-05T10:02:16.088Z,18.48
2017-01-05T10:03:26.439Z,18.52
2017-01-05T10:04:36.374Z,18.46
2017-01-05T10:05:46.727Z,18.42
2017-01-05T10:06:57.063Z,18.43
2017-01-05T10:08:07.405Z,18.45
2017-01-05T10:09:17.720Z,18.45
2017-01-05T10:10:28.046Z,18.43
2017-01-05T10:11:37.980Z,18.41
2017-01-05T10:12:47.506Z,18.48
2017-01-05T10:13:57.848Z,18.48
2017-01-05T10:15:08.587Z,18.41
2017-01-05T10:16:18.976Z,18.46
2017-01-05T10:17:29.914Z,18.46
2017-01-05T10:18:39.860Z,18.43
2017-01-05T10:19:50.605Z,18.42
2017-01-05T10:21:01.358Z,18.48
2017-01-05T10:22:12.088Z,18.48
2017-01-05T10:23:22.830Z,18.51
2017-01-05T10:24:33.540Z,18.43
2017-01-05T10:25:43.486Z,18.46
2017-01-05T10:26:53.816Z,18.49
2017-01-05T10:28:04.555Z,18.46
2017-01-05T10:29:15.297Z,18.45
2017-01-05T10:30:26.067Z,18.48
2017-01-05T10:31:36.404Z,18.43
2017-01-05T10:32:46.745Z,18.48
2017-01-05T10:33:57.079Z,18.42
2017-01-05T10:35:07.045Z,18.46
2017-01-05T10:36:17.221Z,18.49
2017-01-05T10:37:27.150Z,18.42
2017-01-05T10:38:37.105Z,18.43
2017-01-05T10:39:47.844Z,18.53
2017-01-05T10:40:58.571Z,18.45
2017-01-05T10:42:08.125Z,18.45
2017-01-05T10:43:18.452Z,18.51
2017-01-05T10:44:28.785Z,18.58
2017-01-05T10:45:39.508Z,18.51
2017-01-05T10:46:49.837Z,18.53
2017-01-05T10:47:59.773Z,18.51
2017-01-05T10:49:10.109Z,18.51
2017-01-05T10:50:20.861Z,18.53
2017-01-05T10:51:31.428Z,18.53
2017-01-05T10:52:41.769Z,18.52
2017-01-05T10:53:51.758Z,18.55
2017-01-05T10:55:01.742Z,18.57
2017-01-05T10:56:12.110Z,18.55
2017-01-05T10:57:22.833Z,18.55
2017-01-05T10:58:32.763Z,18.58
2017-01-05T10:59:42.795Z,18.55
2017-01-05T11:00:52.743Z,18.6
2017-01-05T11:02:02.682Z,18.6
2017-01-05T11:03:13.016Z,18.61
2017-01-05T11:04:22.554Z,18.6
2017-01-05T11:05:32.500Z,18.53
2017-01-05T11:06:43.253Z,18.61
2017-01-05T11:07:53.988Z,18.61
2017-01-05T11:09:04.330Z,18.58
2017-01-05T11:10:15.073Z,18.6
2017-01-05T11:11:25.018Z,18.57
2017-01-05T11:12:35.762Z,18.6
2017-01-05T11:13:46.107Z,18.61
2017-01-05T11:14:56.445Z,18.55
2017-01-05T11:16:06.794Z,18.58
2017-01-05T11:17:17.126Z,18.58
2017-01-05T11:18:27.475Z,18.58
2017-01-05T11:19:37.409Z,18.68
2017-01-05T11:20:47.347Z,18.58
2017-01-05T11:21:56.900Z,18.78
2017-01-05T11:23:06.859Z,18.82
2017-01-05T11:24:17.694Z,18.76
2017-01-05T11:25:28.447Z,18.76
2017-01-05T11:26:39.195Z,18.74
2017-01-05T11:27:49.571Z,18.73
2017-01-05T11:29:00.308Z,18.71
2017-01-05T11:30:11.072Z,18.74
2017-01-05T11:31:21.018Z,18.73
2017-01-05T11:32:30.964Z,18.74
2017-01-05T11:33:41.713Z,18.91
2017-01-05T11:34:52.042Z,18.88
2017-01-05T11:36:02.422Z,18.97
2017-01-05T11:37:12.397Z,18.91
2017-01-05T11:38:22.736Z,18.76
2017-01-05T11:39:33.114Z,18.76
2017-01-05T11:40:43.952Z,18.7
2017-01-05T11:41:54.927Z,18.71
2017-01-05T11:43:04.480Z,18.76
2017-01-05T11:44:14.826Z,18.76
2017-01-05T11:45:25.613Z,18.78
2017-01-05T11:46:36.016Z,18.76
2017-01-05T11:47:45.976Z,18.7
2017-01-05T11:48:56.614Z,18.66
2017-01-05T11:50:07.344Z,18.71
2017-01-05T11:51:17.729Z,18.78
2017-01-05T11:52:28.128Z,18.7
2017-01-05T11:53:38.870Z,18.7
2017-01-05T11:54:48.819Z,18.73
2017-01-05T11:55:59.586Z,18.73
2017-01-05T11:57:10.572Z,18.76
2017-01-05T11:58:20.896Z,18.7
2017-01-05T11:59:31.275Z,18.71
2017-01-05T12:00:41.207Z,18.74
2017-01-05T12:01:51.129Z,18.7
2017-01-05T12:03:01.843Z,18.78
2017-01-05T12:04:12.583Z,18.79
2017-01-05T12:05:23.304Z,18.79
2017-01-05T12:06:33.623Z,18.91
2017-01-05T12:07:43.164Z,18.78
2017-01-05T12:08:53.863Z,18.78
2017-01-05T12:10:04.227Z,18.89
2017-01-05T12:11:14.955Z,18.83
2017-01-05T12:12:25.670Z,18.73
2017-01-05T12:13:36.382Z,18.78
2017-01-05T12:14:45.898Z,18.74
2017-01-05T12:15:56.602Z,18.76
2017-01-05T12:17:07.137Z,18.74
2017-01-05T12:18:17.443Z,18.7
2017-01-05T12:19:27.358Z,18.7
2017-01-05T12:20:38.054Z,18.67
2017-01-05T12:21:47.973Z,18.78
2017-01-05T12:22:58.271Z,18.68
2017-01-05T12:24:08.203Z,18.71
2017-01-05T12:25:18.130Z,18.67
2017-01-05T12:26:28.457Z,18.71
2017-01-05T12:27:39.180Z,18.6
2017-01-05T12:28:49.885Z,18.63
2017-01-05T12:29:59.992Z,18.68
2017-01-05T12:31:10.319Z,18.6
2017-01-05T12:32:21.065Z,18.55
2017-01-05T12:33:31.778Z,18.67
2017-01-05T12:34:42.523Z,18.53
2017-01-05T12:35:52.439Z,18.58
2017-01-05T12:37:02.357Z,18.6
2017-01-05T12:38:12.900Z,18.58
2017-01-05T12:39:23.226Z,18.58
2017-01-05T12:40:33.162Z,18.55
2017-01-05T12:41:43.456Z,18.6
2017-01-05T12:42:54.149Z,18.57
2017-01-05T12:44:04.463Z,18.58
2017-01-05T12:45:14.396Z,18.55
2017-01-05T12:46:25.105Z,18.53
2017-01-05T12:47:35.792Z,18.61
2017-01-05T12:48:45.307Z,18.58
2017-01-05T12:49:55.238Z,18.61
2017-01-05T12:51:05.995Z,18.6
2017-01-05T12:52:16.309Z,18.58
2017-01-05T12:53:27.020Z,18.63
2017-01-05T12:54:37.333Z,18.57
2017-01-05T12:55:46.869Z,18.61
2017-01-05T12:56:56.781Z,18.6
2017-01-05T12:58:06.692Z,18.66
2017-01-05T12:59:16.604Z,18.73
2017-01-05T13:00:26.508Z,18.66
2017-01-05T13:01:37.199Z,18.64
2017-01-05T13:02:47.512Z,18.73
2017-01-05T13:03:58.212Z,18.66
2017-01-05T13:05:08.124Z,18.68
2017-01-05T13:06:18.028Z,18.64
2017-01-05T13:07:27.162Z,18.67
2017-01-05T13:08:37.088Z,18.6
2017-01-05T13:09:47.394Z,18.58
2017-01-05T13:10:58.123Z,18.55
2017-01-05T13:12:08.022Z,18.57
2017-01-05T13:13:18.344Z,18.58
2017-01-05T13:14:28.660Z,18.58
2017-01-05T13:15:38.561Z,18.53
2017-01-05T13:16:48.868Z,18.49
2017-01-05T13:17:59.187Z,18.49
2017-01-05T13:19:09.501Z,18.48
2017-01-05T13:20:20.039Z,18.48
2017-01-05T13:21:30.736Z,18.45
2017-01-05T13:22:41.037Z,18.45
2017-01-05T13:23:51.334Z,18.46
2017-01-05T13:25:01.641Z,18.37
2017-01-05T13:26:12.332Z,18.34
2017-01-05T13:27:23.024Z,18.43
2017-01-05T13:28:33.360Z,18.37
2017-01-05T13:29:43.270Z,18.34
2017-01-05T13:30:53.592Z,18.41
2017-01-05T13:32:04.294Z,18.33
2017-01-05T13:33:14.726Z,18.37
2017-01-05T13:34:25.723Z,18.46
2017-01-05T13:35:36.038Z,18.36
2017-01-05T13:36:46.342Z,18.39
2017-01-05T13:37:56.267Z,18.43
2017-01-05T13:39:06.190Z,18.43
2017-01-05T13:40:16.486Z,18.53
2017-01-05T13:41:26.808Z,18.51
2017-01-05T13:42:36.725Z,18.48
2017-01-05T13:43:46.684Z,18.52
2017-01-05T13:44:56.582Z,18.49
2017-01-05T13:46:06.905Z,18.51
2017-01-05T13:47:17.236Z,18.52
2017-01-05T13:48:27.537Z,18.49
2017-01-05T13:49:37.850Z,18.45
2017-01-05T13:50:48.577Z,18.45
2017-01-05T13:51:58.874Z,18.43
2017-01-05T13:53:09.248Z,18.45
2017-01-05T13:54:19.990Z,18.45
2017-01-05T13:55:30.286Z,18.42
2017-01-05T13:56:41.317Z,18.34
2017-01-05T13:57:51.650Z,18.36
2017-01-05T13:59:01.581Z,18.39
2017-01-05T14:00:11.899Z,18.39
2017-01-05T14:01:21.442Z,18.37
2017-01-05T14:02:31.343Z,18.48
2017-01-05T14:03:41.275Z,18.34
2017-01-05T14:04:51.610Z,18.41
2017-01-05T14:06:01.926Z,18.31
2017-01-05T14:07:12.274Z,18.34
2017-01-05T14:08:22.601Z,18.31
2017-01-05T14:09:32.902Z,18.39
2017-01-05T14:10:42.817Z,18.41
2017-01-05T14:11:52.749Z,18.37
2017-01-05T14:13:03.452Z,18.34
2017-01-05T14:14:13.771Z,18.34
2017-01-05T14:15:23.726Z,18.28
2017-01-05T14:16:34.450Z,18.39
2017-01-05T14:17:44.781Z,18.39
2017-01-05T14:18:55.517Z,18.39
2017-01-05T14:20:05.479Z,18.39
2017-01-05T14:21:15.420Z,18.37
2017-01-05T14:22:25.988Z,18.3
2017-01-05T14:23:36.422Z,18.31
2017-01-05T14:24:46.860Z,18.36
2017-01-05T14:25:57.393Z,18.33
2017-01-05T14:27:07.835Z,18.27
2017-01-05T14:28:18.666Z,18.36
2017-01-05T14:29:29.521Z,18.27
2017-01-05T14:30:38.792Z,18.21
2017-01-05T14:31:49.253Z,18.23
2017-01-05T14:32:59.251Z,18.21
2017-01-05T14:34:09.545Z,18.24
2017-01-05T14:35:19.930Z,18.24
2017-01-05T14:36:30.827Z,18.19
2017-01-05T14:37:41.580Z,18.24
2017-01-05T14:38:51.912Z,18.21
2017-01-05T14:40:02.389Z,18.21
2017-01-05T14:41:13.172Z,18.11
2017-01-05T14:42:22.357Z,18.15
2017-01-05T14:43:31.931Z,18.13
2017-01-05T14:44:42.649Z,18.13
2017-01-05T14:45:53.000Z,18.11
2017-01-05T14:47:02.978Z,18.12
2017-01-05T14:48:13.385Z,18.08
2017-01-05T14:49:23.748Z,18.05
2017-01-05T14:50:33.720Z,18.11
2017-01-05T14:51:44.514Z,18.12
2017-01-05T14:52:55.329Z,18.12
2017-01-05T14:54:04.855Z,18.11
2017-01-05T14:55:15.225Z,18.12
2017-01-05T14:56:24.457Z,18.11
2017-01-05T14:57:34.397Z,18.13
2017-01-05T14:58:44.777Z,18.11
2017-01-05T14:59:54.783Z,18.11
2017-01-05T15:01:04.707Z,18.13
2017-01-05T15:02:15.009Z,18.09
2017-01-05T15:03:25.509Z,18.06
2017-01-05T15:04:36.084Z,18.13
2017-01-05T15:05:46.539Z,18.11
2017-01-05T15:06:56.944Z,18.13
2017-01-05T15:08:07.325Z,18.11
2017-01-05T15:09:17.800Z,18.18
2017-01-05T15:10:28.160Z,18.09